Time;durP1;ratioP1;P1;durP2;ratioP2;P2;SDS_P1;SDS_P2;PMS_P1;PMS_P2;Temp;Humidity;BMP_temperature;BMP_pressure;BME280_temperature;BME280_humidity;BME280_pressure;Samples;Min_cycle;Max_cycle;Signal;HPM_P1;HPM_P2
2023/06/14 00:00:58;;;;;;;4.40;2.80;;;;;;;23.22;40.35;100335.70;103916;1315;67843;-89
2023/06/14 00:03:25;;;;;;;2.40;2.20;;;;;;;23.22;40.27;100337.08;103684;1317;67154;-89
2023/06/14 00:05:51;;;;;;;4.60;2.50;;;;;;;23.22;40.08;100342.21;103833;1315;68659;-89
2023/06/14 00:08:18;;;;;;;4.40;2.60;;;;;;;23.22;40.17;100341.70;104047;1316;68500;-88
2023/06/14 00:10:44;;;;;;;2.90;2.30;;;;;;;23.21;40.15;100346.46;103970;1314;67938;-89
2023/06/14 00:13:10;;;;;;;2.70;2.50;;;;;;;23.22;40.16;100342.98;103825;1315;68253;-89
2023/06/14 00:15:47;;;;;;;2.60;2.40;;;;;;;23.21;40.07;100337.55;103858;1313;67953;-92
2023/06/14 00:18:13;;;;;;;3.40;2.50;;;;;;;23.20;40.10;100334.78;103790;1314;67978;-89
2023/06/14 00:20:39;;;;;;;2.60;2.30;;;;;;;23.20;40.23;100331.91;103752;1315;69171;-89
2023/06/14 00:23:05;;;;;;;3.20;2.70;;;;;;;23.20;40.30;100333.19;103930;1314;67998;-89
2023/06/14 00:25:31;;;;;;;3.00;2.50;;;;;;;23.20;40.37;100327.80;103740;1314;68846;-88
2023/06/14 00:27:57;;;;;;;2.80;2.50;;;;;;;23.20;40.10;100330.05;103581;1315;68704;-88
2023/06/14 00:30:23;;;;;;;3.10;2.20;;;;;;;23.20;40.36;100326.26;103594;1314;67998;-88
2023/06/14 00:32:48;;;;;;;2.80;2.50;;;;;;;23.20;40.29;100323.39;103910;1311;68766;-88
2023/06/14 00:35:14;;;;;;;6.00;2.40;;;;;;;23.19;40.21;100322.37;103695;1316;67196;-88
2023/06/14 00:37:40;;;;;;;4.00;2.50;;;;;;;23.19;40.17;100325.44;103612;1314;67690;-88
2023/06/14 00:40:06;;;;;;;3.30;2.50;;;;;;;23.19;40.15;100322.52;103624;1314;68060;-88
2023/06/14 00:42:41;;;;;;;2.50;2.20;;;;;;;23.18;40.20;100321.54;103532;1314;69059;-90
2023/06/14 00:45:08;;;;;;;3.00;2.00;;;;;;;23.18;40.14;100318.00;103697;1314;67141;-89
2023/06/14 00:47:35;;;;;;;2.10;1.90;;;;;;;23.18;40.14;100314.88;103805;1313;69418;-89
2023/06/14 00:50:01;;;;;;;2.80;2.30;;;;;;;23.18;40.00;100313.08;103764;1317;82048;-88
2023/06/14 00:52:27;;;;;;;2.50;2.10;;;;;;;23.18;40.21;100311.49;103696;1313;68551;-88
2023/06/14 00:54:53;;;;;;;3.80;2.10;;;;;;;23.18;40.23;100310.93;103718;1314;67768;-88
2023/06/14 00:57:19;;;;;;;3.50;2.10;;;;;;;23.17;40.04;100307.89;103622;1317;67970;-88
2023/06/14 00:59:46;;;;;;;2.30;2.10;;;;;;;23.17;39.96;100309.44;103750;1315;67858;-88
2023/06/14 01:02:14;;;;;;;2.40;2.20;;;;;;;23.17;39.96;100311.29;103721;1321;67947;-89
2023/06/14 01:04:41;;;;;;;2.20;2.00;;;;;;;23.17;40.02;100306.61;103728;1315;67206;-88
2023/06/14 01:07:13;;;;;;;4.00;2.20;;;;;;;23.17;39.89;100306.25;103794;1314;68362;-88
2023/06/14 01:09:48;;;;;;;3.20;2.20;;;;;;;23.16;39.99;100306.47;103890;1315;67998;-89
2023/06/14 01:15:02;;;;;;;2.80;2.20;;;;;;;23.16;39.77;100304.85;103826;1314;74501;-88
2023/06/14 01:17:31;;;;;;;2.50;1.90;;;;;;;23.15;39.74;100304.54;103817;1314;68451;-88
2023/06/14 01:20:00;;;;;;;2.30;2.00;;;;;;;23.15;39.88;100305.36;103694;1315;69325;-88
2023/06/14 01:22:27;;;;;;;2.80;2.00;;;;;;;23.15;39.93;100302.84;103801;1314;68039;-89
2023/06/14 01:24:55;;;;;;;3.90;2.20;;;;;;;23.15;39.76;100298.44;104158;1314;68096;-88
2023/06/14 01:27:40;;;;;;;2.40;2.00;;;;;;;23.15;39.89;100296.02;103857;1314;75053;-88
2023/06/14 01:30:07;;;;;;;2.40;2.20;;;;;;;23.14;39.89;100295.52;103850;1314;72392;-88
2023/06/14 01:32:33;;;;;;;4.40;2.00;;;;;;;23.14;39.87;100292.39;103705;1316;67628;-88
2023/06/14 01:34:59;;;;;;;2.60;2.00;;;;;;;23.14;39.70;100291.27;103819;1311;67883;-88
2023/06/14 01:37:26;;;;;;;2.80;2.10;;;;;;;23.13;39.82;100287.25;103800;1314;67994;-88
2023/06/14 01:39:52;;;;;;;2.20;2.00;;;;;;;23.13;39.81;100285.56;103896;1314;67661;-88
2023/06/14 01:42:27;;;;;;;2.20;2.00;;;;;;;23.13;39.73;100283.38;103946;1314;69029;-91
2023/06/14 01:44:53;;;;;;;3.20;2.30;;;;;;;23.13;39.80;100287.77;103703;1315;68425;-88
2023/06/14 01:47:18;;;;;;;2.20;2.00;;;;;;;23.13;39.73;100291.58;103845;1314;67343;-88
2023/06/14 01:49:46;;;;;;;1.80;1.60;;;;;;;23.13;39.77;100296.25;103896;1314;67240;-88
2023/06/14 01:52:12;;;;;;;2.20;2.00;;;;;;;23.13;39.60;100296.20;103732;1314;67956;-88
2023/06/14 01:54:41;;;;;;;2.80;1.90;;;;;;;23.13;39.51;100296.09;103698;1312;68005;-88
2023/06/14 01:57:08;;;;;;;3.10;1.80;;;;;;;23.12;39.61;100296.16;103757;1316;67771;-88
2023/06/14 01:59:35;;;;;;;2.10;1.90;;;;;;;23.12;39.72;100296.87;103786;1317;67927;-88
2023/06/14 02:02:03;;;;;;;2.80;2.00;;;;;;;23.12;39.53;100304.88;103610;1316;67777;-88
2023/06/14 02:04:29;;;;;;;3.10;1.80;;;;;;;23.12;39.47;100307.14;103655;1311;74541;-88
2023/06/14 02:06:55;;;;;;;3.30;1.90;;;;;;;23.12;39.51;100304.88;103692;1315;68719;-88
2023/06/14 02:09:20;;;;;;;2.20;1.80;;;;;;;23.12;39.50;100308.52;103633;1313;69045;-89
2023/06/14 02:11:47;;;;;;;2.00;1.80;;;;;;;23.12;39.58;100308.71;103802;1313;69295;-88
2023/06/14 02:14:14;;;;;;;2.70;2.00;;;;;;;23.11;39.63;100307.73;103818;1314;67901;-88
2023/06/14 02:16:40;;;;;;;2.80;2.10;;;;;;;23.11;39.53;100305.36;103662;1314;67261;-89
2023/06/14 02:19:06;;;;;;;1.80;1.70;;;;;;;23.11;39.61;100307.16;103832;1314;68873;-88
2023/06/14 02:21:32;;;;;;;2.80;1.90;;;;;;;23.10;39.51;100307.17;103792;1312;68462;-89
2023/06/14 02:23:58;;;;;;;3.00;1.80;;;;;;;23.10;39.35;100311.42;103887;1314;67817;-88
2023/06/14 02:26:24;;;;;;;3.40;1.90;;;;;;;23.10;39.36;100313.73;103876;1314;74699;-88
2023/06/14 02:28:50;;;;;;;2.30;2.00;;;;;;;23.09;39.55;100314.61;103623;1322;69555;-88
2023/06/14 02:31:16;;;;;;;3.40;1.80;;;;;;;23.10;39.40;100314.92;103683;1312;68013;-88
2023/06/14 02:33:42;;;;;;;2.40;1.80;;;;;;;23.09;39.43;100319.55;103885;1311;68563;-88
2023/06/14 02:38:46;;;;;;;2.50;1.90;;;;;;;23.09;39.52;100320.89;103912;1314;83360;-88
2023/06/14 02:41:12;;;;;;;4.00;1.90;;;;;;;23.08;39.41;100324.11;103749;1314;72620;-88
2023/06/14 02:43:39;;;;;;;2.80;2.10;;;;;;;23.09;39.28;100334.73;103787;1313;68405;-88
2023/06/14 02:46:06;;;;;;;5.90;2.10;;;;;;;23.08;39.29;100338.80;103705;1314;68056;-88
2023/06/14 02:48:31;;;;;;;2.20;1.80;;;;;;;23.08;39.51;100341.17;103589;1319;67106;-87
2023/06/14 02:53:31;;;;;;;3.20;1.90;;;;;;;23.08;39.50;100347.83;103985;1315;73434;-89
2023/06/14 02:55:58;;;;;;;4.90;2.10;;;;;;;23.08;39.53;100343.23;103990;1315;67951;-89
2023/06/14 02:58:24;;;;;;;2.00;1.60;;;;;;;23.07;39.56;100346.30;103821;1320;67533;-89
2023/06/14 03:00:52;;;;;;;3.50;1.90;;;;;;;23.08;39.49;100349.84;104363;1311;67686;-88
2023/06/14 03:03:19;;;;;;;3.70;2.20;;;;;;;23.07;39.39;100350.52;104067;1305;75962;-88
2023/06/14 03:05:47;;;;;;;9.00;8.10;;;;;;;23.07;39.38;100350.20;103919;1312;74439;-89
2023/06/14 03:08:19;;;;;;;13.30;11.90;;;;;;;23.07;39.54;100349.80;103811;1313;67274;-89
2023/06/14 03:10:48;;;;;;;13.70;12.30;;;;;;;23.08;39.59;100354.40;103994;1313;68493;-89
2023/06/14 03:13:14;;;;;;;7.50;6.70;;;;;;;23.09;39.80;100356.61;104001;1314;74558;-88
2023/06/14 03:15:43;;;;;;;7.30;5.80;;;;;;;23.10;40.04;100361.41;103807;1315;67843;-89
2023/06/14 03:18:09;;;;;;;5.70;4.20;;;;;;;23.09;39.75;100355.63;103779;1314;68608;-90
2023/06/14 03:20:35;;;;;;;6.80;3.60;;;;;;;23.08;39.61;100360.21;104255;1313;68083;-89
2023/06/14 03:23:02;;;;;;;5.30;3.40;;;;;;;23.07;39.92;100360.73;104332;1314;67512;-89
2023/06/14 03:25:29;;;;;;;7.00;3.80;;;;;;;23.05;39.86;100361.21;104265;1314;67804;-89
2023/06/14 03:27:55;;;;;;;5.80;2.90;;;;;;;23.03;39.83;100366.05;104321;1314;74179;-90
2023/06/14 03:30:21;;;;;;;4.40;2.80;;;;;;;23.00;39.90;100366.19;104216;1314;69076;-90
2023/06/14 03:32:47;;;;;;;5.10;2.70;;;;;;;22.99;40.04;100368.03;104155;1314;68538;-89
2023/06/14 03:35:16;;;;;;;4.80;2.50;;;;;;;22.99;40.26;100367.27;104156;1314;68528;-89
2023/06/14 03:37:45;;;;;;;3.80;2.30;;;;;;;22.98;40.13;100373.74;104210;1314;69058;-89
2023/06/14 03:40:12;;;;;;;3.20;2.50;;;;;;;22.98;40.15;100370.87;104241;1314;74374;-89
2023/06/14 03:42:37;;;;;;;7.50;3.50;;;;;;;22.98;40.06;100372.31;104056;1314;72554;-89
2023/06/14 03:45:04;;;;;;;4.40;3.50;;;;;;;22.97;40.12;100376.58;104201;1314;67772;-89
2023/06/14 03:47:29;;;;;;;4.30;2.90;;;;;;;22.92;39.78;100378.58;104167;1314;67699;-89
2023/06/14 03:49:55;;;;;;;3.90;2.60;;;;;;;22.88;39.95;100372.30;104160;1314;67927;-90
2023/06/14 03:52:23;;;;;;;4.10;2.60;;;;;;;22.84;39.95;100372.14;104184;1314;67892;-90
2023/06/14 03:54:49;;;;;;;3.50;2.60;;;;;;;22.80;39.73;100373.51;104280;1314;67959;-90
2023/06/14 03:57:15;;;;;;;2.90;2.30;;;;;;;22.76;39.59;100372.41;104033;1314;68585;-90
2023/06/14 03:59:41;;;;;;;7.50;2.60;;;;;;;22.72;39.90;100377.17;103718;1314;68578;-90
2023/06/14 04:02:09;;;;;;;7.10;2.60;;;;;;;22.67;39.89;100375.92;103783;1314;68540;-90
2023/06/14 04:04:35;;;;;;;4.70;2.60;;;;;;;22.62;39.89;100378.12;101592;1314;3121865;-90
2023/06/14 04:07:03;;;;;;;5.00;2.50;;;;;;;22.60;39.67;100376.52;103771;1317;68068;-90
2023/06/14 04:09:32;;;;;;;3.90;2.70;;;;;;;22.57;39.83;100376.17;103724;1316;68391;-90
2023/06/14 04:12:01;;;;;;;5.10;2.50;;;;;;;22.55;40.00;100377.20;103981;1316;75199;-90
2023/06/14 04:14:27;;;;;;;6.10;2.80;;;;;;;22.54;39.95;100386.14;103979;1316;83193;-90
2023/06/14 04:16:56;;;;;;;7.50;2.50;;;;;;;22.54;40.01;100381.58;103810;1316;72529;-90
2023/06/14 04:19:21;;;;;;;8.20;2.90;;;;;;;22.53;40.00;100380.96;103710;1317;68958;-91
2023/06/14 04:21:47;;;;;;;5.60;2.70;;;;;;;22.51;39.98;100381.64;103855;1314;67976;-91
2023/06/14 04:24:13;;;;;;;4.10;2.90;;;;;;;22.51;40.18;100380.02;103602;1317;67913;-90
2023/06/14 04:26:47;;;;;;;6.60;2.70;;;;;;;22.51;40.07;100388.16;103703;1317;67829;-91
2023/06/14 04:42:58;;;;;;;7.40;2.70;;;;;;;22.35;40.39;100407.77;104089;1314;73393;-90
2023/06/14 04:50:53;;;;;;;5.00;2.90;;;;;;;22.30;40.56;100413.61;104351;1305;75367;-88
2023/06/14 04:55:54;;;;;;;9.90;2.90;;;;;;;22.26;40.69;100421.63;104010;1311;73184;-90
2023/06/14 05:00:59;;;;;;;7.20;3.10;;;;;;;22.25;40.74;100422.61;103950;1312;68109;-90
2023/06/14 05:03:30;;;;;;;5.10;2.70;;;;;;;22.23;40.69;100422.83;103983;1311;74563;-90
2023/06/14 05:06:00;;;;;;;7.80;3.40;;;;;;;22.20;40.75;100424.84;103713;1305;84053;-90
2023/06/14 05:11:04;;;;;;;5.80;3.00;;;;;;;22.15;40.84;100431.42;103773;1318;68167;-90
2023/06/14 05:13:34;;;;;;;6.10;3.20;;;;;;;22.13;40.91;100438.56;103772;1312;68259;-91
2023/06/14 05:16:01;;;;;;;6.70;3.50;;;;;;;22.13;40.93;100440.52;103701;1315;75604;-89
2023/06/14 05:18:33;;;;;;;6.60;3.10;;;;;;;22.14;41.10;100441.42;103567;1312;84031;-90
2023/06/14 05:26:25;;;;;;;7.40;3.80;;;;;;;22.11;41.03;100448.11;104046;1311;67861;-90
2023/06/14 05:29:18;;;;;;;9.90;3.40;;;;;;;22.11;41.08;100447.80;103727;1313;75095;-90
2023/06/14 05:31:54;;;;;;;10.50;3.80;;;;;;;22.12;41.10;100451.07;103990;1311;83045;-90
2023/06/14 05:34:34;;;;;;;8.30;4.10;;;;;;;22.13;41.24;100455.98;104079;1313;74013;-89
2023/06/14 05:37:07;;;;;;;6.80;3.70;;;;;;;22.14;41.23;100455.84;104159;1310;68012;-90
2023/06/14 05:39:36;;;;;;;5.40;3.50;;;;;;;22.15;41.40;100457.55;103935;1319;67954;-90
2023/06/14 05:42:02;;;;;;;6.20;3.60;;;;;;;22.17;41.27;100454.11;103883;1314;75535;-90
2023/06/14 05:44:41;;;;;;;11.20;4.30;;;;;;;22.19;41.42;100456.02;104044;1312;85918;31
2023/06/14 05:47:08;;;;;;;13.40;6.80;;;;;;;22.19;41.32;100456.41;104105;1315;72538;-90
2023/06/14 05:52:29;;;;;;;8.10;6.10;;;;;;;22.22;41.47;100452.04;104118;1312;67272;-89
2023/06/14 05:54:56;;;;;;;9.60;5.70;;;;;;;22.25;41.50;100453.61;104053;1314;74909;-89
2023/06/14 05:57:25;;;;;;;7.80;4.70;;;;;;;22.27;41.48;100451.61;104043;1316;68113;-90
2023/06/14 06:02:45;;;;;;;11.00;5.50;;;;;;;22.34;41.38;100450.33;103070;1312;68746;-90
2023/06/14 06:05:12;;;;;;;12.10;5.10;;;;;;;22.35;41.46;100457.70;103938;1314;68502;-90
2023/06/14 06:07:49;;;;;;;9.90;4.60;;;;;;;22.38;41.55;100456.27;103954;1316;75581;-89
2023/06/14 06:10:15;;;;;;;7.00;4.40;;;;;;;22.40;41.65;100460.18;103968;1313;83205;-90
2023/06/14 06:12:51;;;;;;;13.90;4.70;;;;;;;22.42;41.76;100458.02;104205;1314;67393;-90
2023/06/14 06:15:18;;;;;;;11.80;4.50;;;;;;;22.44;41.76;100458.19;104302;1311;68576;-90
2023/06/14 06:17:47;;;;;;;14.70;4.80;;;;;;;22.46;41.81;100459.26;104172;1305;67817;-89
2023/06/14 06:22:59;;;;;;;12.00;4.80;;;;;;;22.51;41.82;100460.25;104050;1314;82866;-90
2023/06/14 06:28:27;;;;;;;11.60;4.90;;;;;;;22.51;41.80;100457.27;86069;1316;67244;-90
2023/06/14 06:33:36;;;;;;;9.80;5.00;;;;;;;22.54;41.75;100461.00;104255;1308;75301;-90
2023/06/14 06:44:45;;;;;;;9.30;5.60;;;;;;;22.49;41.94;100462.15;86250;1311;69486;-89
2023/06/14 06:49:40;;;;;;;13.80;5.70;;;;;;;22.45;41.92;100461.11;103848;1316;83179;-87
2023/06/14 06:52:06;;;;;;;7.30;5.30;;;;;;;22.45;42.03;100459.46;103983;1314;68439;-90
2023/06/14 06:54:32;;;;;;;10.40;5.50;;;;;;;22.43;42.23;100458.13;104029;1317;67756;-89
2023/06/14 06:56:58;;;;;;;9.90;5.80;;;;;;;22.42;42.16;100458.33;103837;1314;68679;-89
2023/06/14 06:59:24;;;;;;;8.50;5.50;;;;;;;22.41;42.29;100457.26;103739;1314;67961;-89
2023/06/14 07:01:50;;;;;;;11.40;6.70;;;;;;;22.42;42.51;100456.65;103544;1313;68585;-89
2023/06/14 07:04:16;;;;;;;9.90;6.40;;;;;;;22.44;42.58;100458.19;103978;1313;68575;-88
2023/06/14 07:06:42;;;;;;;9.50;5.90;;;;;;;22.46;42.45;100456.23;104347;1314;67151;-89
2023/06/14 07:09:12;;;;;;;10.40;6.10;;;;;;;22.47;42.61;100458.33;104073;1313;74509;-89
2023/06/14 07:11:41;;;;;;;11.20;6.50;;;;;;;22.49;42.54;100460.56;103910;1315;82090;-89
2023/06/14 07:16:35;;;;;;;10.50;5.90;;;;;;;22.51;42.76;100462.77;104145;1314;68645;-89
2023/06/14 07:24:54;;;;;;;8.40;6.20;;;;;;;22.49;42.84;100462.88;104195;1311;82057;-93
2023/06/14 07:34:00;;;;;;;9.80;6.30;;;;;;;22.52;42.80;100460.91;87084;1314;67524;31
2023/06/14 07:57:50;;;;;;;8.00;5.70;;;;;;;22.76;43.11;100454.38;99290;1304;72198;-89
2023/06/14 08:06:30;;;;;;;9.20;5.70;;;;;;;22.85;43.00;100449.44;101176;1314;73491;-91
2023/06/14 08:09:19;;;;;;;9.90;5.90;;;;;;;22.88;42.86;100451.86;104031;1315;83021;-90
2023/06/14 09:00:27;;;;;;;10.50;6.30;;;;;;;23.18;42.75;100430.15;104271;1314;69881;-89
2023/06/14 09:02:57;;;;;;;9.70;6.10;;;;;;;23.20;42.62;100430.77;104052;1311;68950;-89
2023/06/14 09:08:23;;;;;;;7.10;5.60;;;;;;;23.23;42.59;100433.48;91062;1315;67293;-89
2023/06/14 09:28:30;;;;;;;10.10;6.10;;;;;;;23.36;42.65;100439.34;104231;1314;67978;-92
2023/06/14 09:39:25;;;;;;;9.20;6.10;;;;;;;23.44;42.62;100432.95;104221;1314;68700;-91
2023/06/14 13:32:15;;;;;;;9.40;5.70;;;;;;;23.92;42.31;100298.73;99691;1313;68265;-92
2023/06/14 14:52:17;;;;;;;;;;;;;;;;;;;;;
2023/06/14 15:00:11;;;;;;;13.10;5.70;;;;;;;23.95;41.70;100262.55;101570;1314;67862;-92
2023/06/14 15:02:38;;;;;;;6.70;5.70;;;;;;;23.96;41.65;100262.04;104169;1314;75453;-91
2023/06/14 15:05:05;;;;;;;9.00;5.50;;;;;;;23.96;41.69;100264.39;103789;1314;68186;-90
2023/06/14 15:07:33;;;;;;;9.90;5.10;;;;;;;23.96;41.62;100267.94;103975;1313;67186;-89
2023/06/14 15:12:43;;;;;;;15.70;5.40;;;;;;;23.96;41.53;100270.77;104197;1307;67113;-89
2023/06/14 15:15:09;;;;;;;8.20;5.30;;;;;;;23.97;41.73;100273.27;104105;1316;77012;-89
2023/06/14 15:17:36;;;;;;;8.10;4.80;;;;;;;23.97;41.68;100267.77;104254;1314;67962;-90
2023/06/14 15:20:06;;;;;;;11.10;4.90;;;;;;;23.97;41.64;100266.48;104088;1313;68438;-88
2023/06/14 15:22:35;;;;;;;7.60;5.10;;;;;;;23.98;41.64;100259.91;104134;1311;68087;-90
2023/06/14 15:39:50;;;;;;;8.20;5.30;;;;;;;23.94;41.68;100261.45;104460;1310;67128;31
2023/06/14 16:13:06;;;;;;;11.90;6.10;;;;;;;23.89;41.80;100273.48;83297;1327;71393;-92
2023/06/14 18:10:04;;;;;;;9.10;6.60;;;;;;;23.79;42.15;100352.81;104205;1314;67835;-91
2023/06/14 18:46:28;;;;;;;9.10;6.50;;;;;;;23.77;42.20;100388.85;104246;1311;83354;-92
